METAR Data
IDs: Format: Raw Decoded Include TAF

Data at: 0857 UTC 26 Jan 2020

KENW 260853Z AUTO 27009G18KT 10SM OVC010 02/M01 A2988 RMK AO2 SNE0754 SLP124 P0000 60000 T00221011 53002
KENW 260816Z AUTO 27010KT 10SM OVC010 02/M01 A2987 RMK AO2 SNE0754 P0000 T00221006
KENW 260753Z AUTO 28009KT 9SM -SN OVC009 02/M01 A2987 RMK AO2 SNB41 SLP123 P0000 T00221006
KENW 260743Z AUTO 27008KT 8SM -SN OVC009 02/M01 A2987 RMK AO2 SNB41 P0000 T00221006
KENW 260705Z AUTO 27008KT 7SM OVC010 02/M01 A2987 RMK AO2 CIG 009V013 T00221006
KENW 260653Z AUTO 28008KT 10SM OVC009 02/M01 A2986 RMK AO2 SLP120 T00221006
KENW 260620Z AUTO 27009KT 10SM OVC009 02/M01 A2987 RMK AO2 T00221006
KENW 260553Z AUTO 27008KT 10SM OVC010 02/M01 A2987 RMK AO2 SLP122 T00221006 10022 20022 400220011 53005
KENW 260537Z AUTO 27007KT 10SM BKN010 OVC019 02/M01 A2987 RMK AO2 T00221006
KENW 260513Z AUTO 28007KT 10SM BKN009 OVC017 02/M01 A2986 RMK AO2 T00221006
KENW 260453Z AUTO 28007KT 10SM OVC010 02/M01 A2986 RMK AO2 SLP119 T00221006
KENW 260353Z 28009KT 10SM OVC011 02/00 A2985 RMK AO2 SLP117 T00220000
KENW 260343Z 28009KT 10SM OVC013 02/M01 A2985 RMK AO2 T00221006
KENW 260320Z 28007KT 10SM OVC015 02/00 A2985 RMK AO2 T00220000
KENW 260253Z 28007KT 10SM OVC011 02/M01 A2985 RMK AO2 SLP115 T00221006 50006
KENW 260153Z 28007KT 10SM OVC013 02/M01 A2985 RMK AO2 SLP115 T00221006
KENW 260053Z 27007KT 10SM OVC014 02/M01 A2984 RMK AO2 SLP112 T00221006
KENW 260037Z 28007KT 10SM OVC014 02/M01 A2984 RMK AO2 T00221006
KENW 252353Z 29007KT 10SM SCT020 BKN029 OVC055 02/M01 A2983 RMK AO2 SLP108 60003 T00221006 10022 20017 53013
KENW 252318Z 29008KT 10SM FEW010 BKN019 OVC024 02/M01 A2982 RMK AO2 T00221006
KENW 252253Z 29009KT 10SM OVC012 02/00 A2982 RMK AO2 SLP104 T00220000
KENW 252227Z 27006KT 10SM BKN013 OVC018 02/00 A2981 RMK AO2 T00220000
KENW 252153Z 28009KT 10SM FEW010 BKN022 OVC030 02/00 A2980 RMK AO2 SLP099 T00220000
KENW 252117Z 28010KT 10SM SCT011 BKN017 OVC024 02/00 A2979 RMK AO2 T00220000
KENW 252104Z 28010KT 6SM BR BKN010 BKN020 OVC028 02/00 A2979 RMK AO2 T00220000
KENW 252053Z 27009KT 7SM SCT006 BKN017 OVC055 02/00 A2979 RMK AO2 SLP095 60003 T00220000 53001
KENW 251953Z 27009KT 6SM BR SCT008 BKN017 OVC039 02/00 A2978 RMK AO2 SNE52 SLP092 P0001 T00220000
KENW 251951Z 27009KT 6SM -SN BR SCT008 BKN017 OVC039 02/00 A2978 RMK AO2 P0001
KENW 251858Z 27007KT 2SM -SN BR BKN006 BKN012 OVC016 02/01 A2979 RMK AO2 P0000 T00220006
KENW 251853Z 27006KT 1 1/2SM -SN BR SCT006 OVC012 02/01 A2979 RMK AO2 SLP094 P0002 T00220006
KENW 251753Z 28008KT 1SM -SN BR SCT006 OVC012 02/00 A2979 RMK AO2 SLP094 P0004 60017 T00170000 10017 20017 50000
KENW 251748Z 28007KT 1SM -SN BR BKN009 OVC012 02/00 A2979 RMK AO2 P0004
KENW 251737Z 28007KT 3/4SM -SN BR BKN007 OVC012 02/00 A2979 RMK AO2 P0003 T00170000
KENW 251700Z 28008KT 1 1/2SM -SN BR BKN006 BKN011 OVC019 02/00 A2980 RMK AO2 P0001 T00170000
KENW 251653Z 27007KT 3/4SM -SN BR BKN006 BKN011 OVC019 02/00 A2980 RMK AO2 SLP097 P0005 T00170000
KENW 251553Z 27007KT 3/4SM -SN BR BKN005 OVC015 02/00 A2979 RMK AO2 SLP094 P0005 T00170000
KENW 251513Z 27006KT 1SM -SN BR BKN004 OVC019 02/00 A2978 RMK AO2 P0001 T00170000
KENW 251453Z 27006KT 1SM -SN BR SCT004 OVC019 02/00 A2978 RMK AO2 SLP091 P0002 60003 T00170000 51010
KENW 251353Z 27006KT 1SM -SN BR BKN005 OVC014 02/00 A2978 RMK AO2 SNB09 SLP090 P0001 T00170000
KENW 251317Z 28006KT 1 3/4SM -SN BR BKN005 BKN016 OVC024 02/00 A2977 RMK AO2 SNB09 P0000 T00170000 $
KENW 251253Z 28006KT 5SM BR OVC005 02/00 A2976 RMK AO2 SLP086 T00170000 $
KENW 251153Z AUTO 27006KT 6SM BR OVC006 02/00 A2975 RMK AO2 SLP081 60002 7//// T00170000 10017 20011 55000 $
KENW 251132Z AUTO 28006KT 5SM BR BKN006 OVC017 02/00 A2975 RMK AO2 T00170000 $
KENW 251053Z AUTO 26006KT 5SM BR SCT007 OVC016 02/00 A2974 RMK AO2 SLP078 T00170000 $
KENW 250953Z AUTO 27005KT 5SM BR OVC005 02/00 A2974 RMK AO2 SLP078 T00170000 $
KENW 250853Z AUTO 27006KT 3SM BR OVC005 01/00 A2975 RMK AO2 SLP082 60002 T00110000 58001 $
KENW 250840Z AUTO 27004KT 3SM BR OVC005 01/00 A2975 RMK AO2 T00110000 $
KENW 250753Z AUTO 00000KT 2 1/2SM BR OVC004 01/00 A2976 RMK AO2 SLP083 T00110000 $
KENW 250751Z AUTO 00000KT 2 1/2SM BR OVC004 01/00 A2975 RMK AO2 $
KENW 250653Z AUTO 00000KT 3SM BR OVC003 01/00 A2975 RMK AO2 SNE10 SLP083 P0002 T00110000 $
KENW 250623Z AUTO 28003KT 3SM BR OVC003 01/00 A2975 RMK AO2 SNE10 P0001 T00110000 $
KENW 250553Z AUTO 00000KT -SN 01/00 A2976 RMK AO2 SNB0459 SLP083 6//// T00110000 10028 20011 400330011 56006 PNO $
KENW 250546Z AUTO 3SM -SN BR 01/00 A2976 RMK AO2 SNB0459 T00110000 PNO $
KENW 250527Z AUTO 28004KT 2SM -SN BR BKN002 OVC024 01/00 A2975 RMK AO2 SNB0459 T00110000 PNO $
KENW 250511Z AUTO 29003KT 1 1/4SM -SN BR 01/00 A2976 RMK AO2 SNB0459 T00110000 PNO $
KENW 250453Z AUTO 01/00 A2976 RMK AO2 SNEMMB44SNEMM SLP085 P0002 T00110000 PWINO FZRANO $
KENW 250442Z AUTO 01/00 A2976 RMK AO2 SNEMM P0001 T00110000 PWINO FZRANO $
KENW 250432Z AUTO 00000KT 1SM -SN BR SCT002 OVC010 02/00 A2976 RMK AO2 P0001 T00170000
KENW 250353Z AUTO 34003KT 1 1/4SM -SN BR FEW003 OVC008 01/00 A2976 RMK AO2 SLP086 P0003 T00110000
KENW 250253Z 34003KT 1 1/4SM -SN BR FEW003 OVC007 01/00 A2977 RMK AO2 SLP090 P0001 60007 T00110000 58003
KENW 250243Z 33003KT 1SM -SN BR VV007 01/00 A2977 RMK AO2 P0001 T00110000
KENW 250207Z 33003KT 3/4SM -SN BR FEW003 OVC009 01/00 A2978 RMK AO2 P0000 T00110000
KENW 250153Z 00000KT 1SM -SN BR VV005 02/01 A2979 RMK AO2 RAE10SNB10 SLP094 P0005 T00170006
KENW 250053Z 34003KT 1 3/4SM -RA BR OVC007 03/01 A2979 RMK AO2 RAE33B50UPB33E50 SLP095 P0001 T00280011
KENW 250032Z 00000KT 1 3/4SM -RA BR OVC007 03/01 A2980 RMK AO2 P0000 T00280011
KENW 250019Z 34003KT 2 1/2SM -RA BR OVC007 03/02 A2979 RMK AO2 CIG 006V011 P0000 T00280017
KENW 250000Z 00000KT 3SM -RA BR OVC009 03/02 A2978 RMK AO2 CIG 006V013 P0000 T00280017
KENW 242353Z 00000KT 1/4SM -RA FG OVC009 03/02 A2978 RMK AO2 SLP092 P0004 60012 T00280017 10033 20022 58003
KENW 242321Z 08003KT 1/4SM -RA FG VV006 03/01 A2979 RMK AO2 P0003 T00280011
KENW 242253Z 09003KT 1/4SM -RA FG VV004 02/01 A2979 RMK AO2 SLP094 P0005 T00220011
KENW 242153Z 05004KT M1/4SM -RA FG VV002 03/02 A2979 RMK AO2 UPB06E33RAB33 SLP093 P0002 T00280017